sensor_id;sensor_type;location;lat;lon;timestamp;P1;durP1;ratioP1;P2;durP2;ratioP2
12896;SDS011;6516;35.028;32.372;2022-07-11T00:00:10;20.17;;;14.10;;
12896;SDS011;6516;35.028;32.372;2022-07-11T00:02:40;18.63;;;13.10;;
12896;SDS011;6516;35.028;32.372;2022-07-11T00:05:08;18.48;;;12.80;;
12896;SDS011;6516;35.028;32.372;2022-07-11T00:07:37;17.17;;;12.95;;
12896;SDS011;6516;35.028;32.372;2022-07-11T00:10:06;19.83;;;13.25;;
12896;SDS011;6516;35.028;32.372;2022-07-11T00:12:34;19.60;;;13.15;;
12896;SDS011;6516;35.028;32.372;2022-07-11T00:15:02;17.97;;;13.07;;
12896;SDS011;6516;35.028;32.372;2022-07-11T00:17:32;20.35;;;13.50;;
12896;SDS011;6516;35.028;32.372;2022-07-11T00:20:00;21.40;;;14.00;;
12896;SDS011;6516;35.028;32.372;2022-07-11T00:22:28;18.42;;;13.40;;
12896;SDS011;6516;35.028;32.372;2022-07-11T00:24:56;20.38;;;13.52;;
12896;SDS011;6516;35.028;32.372;2022-07-11T00:27:23;19.70;;;14.20;;
12896;SDS011;6516;35.028;32.372;2022-07-11T00:29:51;18.65;;;13.77;;
12896;SDS011;6516;35.028;32.372;2022-07-11T00:32:19;19.45;;;14.07;;
12896;SDS011;6516;35.028;32.372;2022-07-11T00:34:48;18.40;;;13.15;;
12896;SDS011;6516;35.028;32.372;2022-07-11T00:37:16;25.13;;;14.57;;
12896;SDS011;6516;35.028;32.372;2022-07-11T00:39:44;21.60;;;13.97;;
12896;SDS011;6516;35.028;32.372;2022-07-11T00:42:15;19.88;;;13.68;;
12896;SDS011;6516;35.028;32.372;2022-07-11T00:44:44;19.85;;;13.40;;
12896;SDS011;6516;35.028;32.372;2022-07-11T00:47:12;19.40;;;13.95;;
12896;SDS011;6516;35.028;32.372;2022-07-11T00:49:39;19.67;;;13.48;;
12896;SDS011;6516;35.028;32.372;2022-07-11T00:52:09;16.43;;;12.97;;
12896;SDS011;6516;35.028;32.372;2022-07-11T00:54:37;25.13;;;14.23;;
12896;SDS011;6516;35.028;32.372;2022-07-11T00:57:05;22.23;;;14.32;;
12896;SDS011;6516;35.028;32.372;2022-07-11T00:59:33;20.25;;;13.68;;
12896;SDS011;6516;35.028;32.372;2022-07-11T01:02:02;24.70;;;14.93;;
12896;SDS011;6516;35.028;32.372;2022-07-11T01:04:31;20.40;;;14.50;;
12896;SDS011;6516;35.028;32.372;2022-07-11T01:07:00;19.65;;;14.15;;
12896;SDS011;6516;35.028;32.372;2022-07-11T01:09:29;20.50;;;14.60;;
12896;SDS011;6516;35.028;32.372;2022-07-11T01:11:57;20.58;;;14.40;;
12896;SDS011;6516;35.028;32.372;2022-07-11T01:14:26;22.13;;;15.02;;
12896;SDS011;6516;35.028;32.372;2022-07-11T01:16:54;21.60;;;15.10;;
12896;SDS011;6516;35.028;32.372;2022-07-11T01:19:22;20.05;;;14.68;;
12896;SDS011;6516;35.028;32.372;2022-07-11T01:21:50;20.90;;;14.93;;
12896;SDS011;6516;35.028;32.372;2022-07-11T01:24:24;23.63;;;15.32;;
12896;SDS011;6516;35.028;32.372;2022-07-11T01:26:53;21.90;;;15.27;;
12896;SDS011;6516;35.028;32.372;2022-07-11T01:29:23;25.27;;;15.73;;
12896;SDS011;6516;35.028;32.372;2022-07-11T01:31:50;22.70;;;15.30;;
12896;SDS011;6516;35.028;32.372;2022-07-11T01:34:18;23.08;;;16.45;;
12896;SDS011;6516;35.028;32.372;2022-07-11T01:36:46;25.73;;;15.60;;
12896;SDS011;6516;35.028;32.372;2022-07-11T01:39:14;21.10;;;15.13;;
12896;SDS011;6516;35.028;32.372;2022-07-11T01:41:43;22.57;;;15.40;;
12896;SDS011;6516;35.028;32.372;2022-07-11T01:44:11;24.88;;;16.02;;
12896;SDS011;6516;35.028;32.372;2022-07-11T01:46:39;22.92;;;15.40;;
12896;SDS011;6516;35.028;32.372;2022-07-11T01:49:08;21.70;;;14.70;;
12896;SDS011;6516;35.028;32.372;2022-07-11T01:51:35;20.40;;;15.13;;
12896;SDS011;6516;35.028;32.372;2022-07-11T01:54:03;20.20;;;15.60;;
12896;SDS011;6516;35.028;32.372;2022-07-11T01:56:31;22.77;;;15.90;;
12896;SDS011;6516;35.028;32.372;2022-07-11T01:59:01;21.65;;;15.43;;
12896;SDS011;6516;35.028;32.372;2022-07-11T02:01:28;25.05;;;16.70;;
12896;SDS011;6516;35.028;32.372;2022-07-11T02:03:57;20.92;;;16.35;;
12896;SDS011;6516;35.028;32.372;2022-07-11T02:06:25;18.27;;;15.03;;
12896;SDS011;6516;35.028;32.372;2022-07-11T02:08:53;20.83;;;15.25;;
12896;SDS011;6516;35.028;32.372;2022-07-11T02:11:22;21.17;;;15.00;;
12896;SDS011;6516;35.028;32.372;2022-07-11T02:13:50;23.35;;;15.68;;
12896;SDS011;6516;35.028;32.372;2022-07-11T02:16:19;21.70;;;16.08;;
12896;SDS011;6516;35.028;32.372;2022-07-11T02:18:47;21.37;;;15.43;;
12896;SDS011;6516;35.028;32.372;2022-07-11T02:21:16;21.52;;;15.68;;
12896;SDS011;6516;35.028;32.372;2022-07-11T02:23:44;21.08;;;16.02;;
12896;SDS011;6516;35.028;32.372;2022-07-11T02:26:12;22.98;;;16.50;;
12896;SDS011;6516;35.028;32.372;2022-07-11T02:28:40;21.42;;;15.98;;
12896;SDS011;6516;35.028;32.372;2022-07-11T02:31:08;23.07;;;16.00;;
12896;SDS011;6516;35.028;32.372;2022-07-11T02:33:37;21.10;;;15.68;;
12896;SDS011;6516;35.028;32.372;2022-07-11T02:36:05;22.25;;;16.30;;
12896;SDS011;6516;35.028;32.372;2022-07-11T02:38:34;22.35;;;16.13;;
12896;SDS011;6516;35.028;32.372;2022-07-11T02:41:01;25.27;;;16.42;;
12896;SDS011;6516;35.028;32.372;2022-07-11T02:43:30;24.17;;;15.73;;
12896;SDS011;6516;35.028;32.372;2022-07-11T02:45:57;22.88;;;15.10;;
12896;SDS011;6516;35.028;32.372;2022-07-11T02:48:25;19.65;;;15.75;;
12896;SDS011;6516;35.028;32.372;2022-07-11T02:50:55;24.33;;;16.00;;
12896;SDS011;6516;35.028;32.372;2022-07-11T02:53:23;19.05;;;15.55;;
12896;SDS011;6516;35.028;32.372;2022-07-11T02:55:51;22.10;;;15.47;;
12896;SDS011;6516;35.028;32.372;2022-07-11T02:58:20;20.17;;;14.60;;
12896;SDS011;6516;35.028;32.372;2022-07-11T03:00:48;21.17;;;15.32;;
12896;SDS011;6516;35.028;32.372;2022-07-11T03:03:16;23.20;;;15.63;;
12896;SDS011;6516;35.028;32.372;2022-07-11T03:05:44;20.63;;;15.57;;
12896;SDS011;6516;35.028;32.372;2022-07-11T03:08:14;24.93;;;16.63;;
12896;SDS011;6516;35.028;32.372;2022-07-11T03:10:41;18.77;;;15.00;;
12896;SDS011;6516;35.028;32.372;2022-07-11T03:13:09;22.23;;;16.42;;
12896;SDS011;6516;35.028;32.372;2022-07-11T03:15:37;25.90;;;16.50;;
12896;SDS011;6516;35.028;32.372;2022-07-11T03:18:05;22.00;;;16.33;;
12896;SDS011;6516;35.028;32.372;2022-07-11T03:20:33;24.13;;;16.00;;
12896;SDS011;6516;35.028;32.372;2022-07-11T03:23:01;18.60;;;15.02;;
12896;SDS011;6516;35.028;32.372;2022-07-11T03:25:30;23.55;;;16.23;;
12896;SDS011;6516;35.028;32.372;2022-07-11T03:27:58;20.50;;;14.98;;
12896;SDS011;6516;35.028;32.372;2022-07-11T03:30:26;20.88;;;16.38;;
12896;SDS011;6516;35.028;32.372;2022-07-11T03:32:54;20.87;;;15.70;;
12896;SDS011;6516;35.028;32.372;2022-07-11T03:35:21;24.17;;;16.00;;
12896;SDS011;6516;35.028;32.372;2022-07-11T03:38:08;27.88;;;16.05;;
12896;SDS011;6516;35.028;32.372;2022-07-11T03:40:38;25.88;;;15.82;;
12896;SDS011;6516;35.028;32.372;2022-07-11T03:43:06;23.58;;;15.75;;
12896;SDS011;6516;35.028;32.372;2022-07-11T03:45:34;21.67;;;14.57;;
12896;SDS011;6516;35.028;32.372;2022-07-11T03:48:03;21.00;;;15.13;;
12896;SDS011;6516;35.028;32.372;2022-07-11T03:50:32;19.83;;;14.90;;
12896;SDS011;6516;35.028;32.372;2022-07-11T03:53:00;21.92;;;15.27;;
12896;SDS011;6516;35.028;32.372;2022-07-11T03:55:30;24.23;;;15.00;;
12896;SDS011;6516;35.028;32.372;2022-07-11T03:58:00;18.57;;;14.57;;
12896;SDS011;6516;35.028;32.372;2022-07-11T04:00:28;19.63;;;13.90;;
12896;SDS011;6516;35.028;32.372;2022-07-11T04:02:56;20.90;;;14.23;;
12896;SDS011;6516;35.028;32.372;2022-07-11T04:05:25;26.77;;;14.02;;
12896;SDS011;6516;35.028;32.372;2022-07-11T04:07:53;21.65;;;14.18;;
12896;SDS011;6516;35.028;32.372;2022-07-11T04:10:22;22.03;;;13.83;;
12896;SDS011;6516;35.028;32.372;2022-07-11T04:12:50;19.65;;;13.48;;
12896;SDS011;6516;35.028;32.372;2022-07-11T04:15:20;21.95;;;13.70;;
12896;SDS011;6516;35.028;32.372;2022-07-11T04:17:48;22.00;;;13.85;;
12896;SDS011;6516;35.028;32.372;2022-07-11T04:20:16;25.17;;;13.68;;
12896;SDS011;6516;35.028;32.372;2022-07-11T04:22:44;23.70;;;13.53;;
12896;SDS011;6516;35.028;32.372;2022-07-11T04:25:11;20.40;;;12.93;;
12896;SDS011;6516;35.028;32.372;2022-07-11T04:27:39;20.05;;;12.90;;
12896;SDS011;6516;35.028;32.372;2022-07-11T04:30:07;22.30;;;13.20;;
12896;SDS011;6516;35.028;32.372;2022-07-11T04:32:38;22.65;;;12.93;;
12896;SDS011;6516;35.028;32.372;2022-07-11T04:35:06;22.93;;;13.20;;
12896;SDS011;6516;35.028;32.372;2022-07-11T04:37:35;20.77;;;12.30;;
12896;SDS011;6516;35.028;32.372;2022-07-11T04:40:03;22.10;;;12.98;;
12896;SDS011;6516;35.028;32.372;2022-07-11T04:42:33;25.70;;;12.65;;
12896;SDS011;6516;35.028;32.372;2022-07-11T04:45:01;22.85;;;12.80;;
12896;SDS011;6516;35.028;32.372;2022-07-11T04:47:29;21.70;;;11.87;;
12896;SDS011;6516;35.028;32.372;2022-07-11T04:49:58;17.83;;;11.27;;
12896;SDS011;6516;35.028;32.372;2022-07-11T04:52:26;17.63;;;11.80;;
12896;SDS011;6516;35.028;32.372;2022-07-11T04:54:55;17.85;;;11.55;;
12896;SDS011;6516;35.028;32.372;2022-07-11T04:57:23;18.23;;;11.25;;
12896;SDS011;6516;35.028;32.372;2022-07-11T04:59:51;16.57;;;10.67;;
12896;SDS011;6516;35.028;32.372;2022-07-11T05:02:19;20.42;;;11.07;;
12896;SDS011;6516;35.028;32.372;2022-07-11T05:04:47;17.27;;;10.65;;
12896;SDS011;6516;35.028;32.372;2022-07-11T05:07:16;18.38;;;10.73;;
12896;SDS011;6516;35.028;32.372;2022-07-11T05:09:44;19.20;;;10.30;;
12896;SDS011;6516;35.028;32.372;2022-07-11T05:12:12;17.90;;;10.00;;
12896;SDS011;6516;35.028;32.372;2022-07-11T05:14:40;20.23;;;9.73;;
12896;SDS011;6516;35.028;32.372;2022-07-11T05:17:07;16.48;;;9.75;;
12896;SDS011;6516;35.028;32.372;2022-07-11T05:19:35;17.20;;;8.82;;
12896;SDS011;6516;35.028;32.372;2022-07-11T05:22:03;14.70;;;8.68;;
12896;SDS011;6516;35.028;32.372;2022-07-11T05:24:33;16.50;;;8.27;;
12896;SDS011;6516;35.028;32.372;2022-07-11T05:27:01;14.18;;;8.63;;
12896;SDS011;6516;35.028;32.372;2022-07-11T05:29:29;14.70;;;9.20;;
12896;SDS011;6516;35.028;32.372;2022-07-11T05:31:57;14.70;;;8.13;;
12896;SDS011;6516;35.028;32.372;2022-07-11T05:34:25;15.57;;;7.68;;
12896;SDS011;6516;35.028;32.372;2022-07-11T05:36:53;18.37;;;7.80;;
12896;SDS011;6516;35.028;32.372;2022-07-11T05:39:20;16.23;;;8.35;;
12896;SDS011;6516;35.028;32.372;2022-07-11T05:41:50;16.73;;;7.97;;
12896;SDS011;6516;35.028;32.372;2022-07-11T05:44:17;15.32;;;7.57;;
12896;SDS011;6516;35.028;32.372;2022-07-11T05:46:45;15.57;;;8.50;;
12896;SDS011;6516;35.028;32.372;2022-07-11T05:49:13;13.30;;;7.70;;
12896;SDS011;6516;35.028;32.372;2022-07-11T05:51:41;15.50;;;8.43;;
12896;SDS011;6516;35.028;32.372;2022-07-11T05:54:09;15.60;;;8.25;;
12896;SDS011;6516;35.028;32.372;2022-07-11T05:56:37;14.00;;;7.82;;
12896;SDS011;6516;35.028;32.372;2022-07-11T05:59:06;17.05;;;8.95;;
12896;SDS011;6516;35.028;32.372;2022-07-11T06:01:34;15.30;;;8.13;;
12896;SDS011;6516;35.028;32.372;2022-07-11T06:04:02;13.32;;;8.73;;
12896;SDS011;6516;35.028;32.372;2022-07-11T06:06:30;14.05;;;8.35;;
12896;SDS011;6516;35.028;32.372;2022-07-11T06:08:58;13.38;;;7.57;;
12896;SDS011;6516;35.028;32.372;2022-07-11T06:11:25;14.18;;;8.27;;
12896;SDS011;6516;35.028;32.372;2022-07-11T06:13:53;13.83;;;8.40;;
12896;SDS011;6516;35.028;32.372;2022-07-11T06:16:23;15.50;;;7.78;;
12896;SDS011;6516;35.028;32.372;2022-07-11T06:18:51;17.30;;;8.55;;
12896;SDS011;6516;35.028;32.372;2022-07-11T06:21:19;16.77;;;8.05;;
12896;SDS011;6516;35.028;32.372;2022-07-11T06:23:47;13.13;;;7.43;;
12896;SDS011;6516;35.028;32.372;2022-07-11T06:26:16;15.43;;;8.50;;
12896;SDS011;6516;35.028;32.372;2022-07-11T06:28:44;13.93;;;7.45;;
12896;SDS011;6516;35.028;32.372;2022-07-11T06:31:12;18.85;;;8.60;;
12896;SDS011;6516;35.028;32.372;2022-07-11T06:33:43;15.73;;;8.20;;
12896;SDS011;6516;35.028;32.372;2022-07-11T06:36:11;16.67;;;8.63;;
12896;SDS011;6516;35.028;32.372;2022-07-11T06:38:38;16.87;;;8.23;;
12896;SDS011;6516;35.028;32.372;2022-07-11T06:41:07;14.38;;;7.32;;
12896;SDS011;6516;35.028;32.372;2022-07-11T06:43:35;14.02;;;8.00;;
12896;SDS011;6516;35.028;32.372;2022-07-11T06:46:03;14.05;;;8.20;;
12896;SDS011;6516;35.028;32.372;2022-07-11T06:48:30;17.45;;;8.65;;
12896;SDS011;6516;35.028;32.372;2022-07-11T06:51:00;16.73;;;8.80;;
12896;SDS011;6516;35.028;32.372;2022-07-11T06:53:28;16.98;;;7.80;;
12896;SDS011;6516;35.028;32.372;2022-07-11T06:55:57;17.60;;;8.50;;
12896;SDS011;6516;35.028;32.372;2022-07-11T06:58:24;15.93;;;8.23;;
12896;SDS011;6516;35.028;32.372;2022-07-11T07:00:58;15.77;;;7.78;;
12896;SDS011;6516;35.028;32.372;2022-07-11T07:03:27;13.87;;;8.13;;
12896;SDS011;6516;35.028;32.372;2022-07-11T07:05:56;15.50;;;8.00;;
12896;SDS011;6516;35.028;32.372;2022-07-11T07:08:27;15.40;;;8.18;;
12896;SDS011;6516;35.028;32.372;2022-07-11T07:10:56;13.80;;;8.40;;
12896;SDS011;6516;35.028;32.372;2022-07-11T07:13:24;14.60;;;8.10;;
12896;SDS011;6516;35.028;32.372;2022-07-11T07:15:54;15.27;;;8.30;;
12896;SDS011;6516;35.028;32.372;2022-07-11T07:18:22;15.15;;;9.10;;
12896;SDS011;6516;35.028;32.372;2022-07-11T07:20:51;15.45;;;8.38;;
12896;SDS011;6516;35.028;32.372;2022-07-11T07:23:20;15.70;;;8.68;;
12896;SDS011;6516;35.028;32.372;2022-07-11T07:25:49;18.00;;;8.95;;
12896;SDS011;6516;35.028;32.372;2022-07-11T07:28:17;20.23;;;8.40;;
12896;SDS011;6516;35.028;32.372;2022-07-11T07:30:45;19.52;;;8.63;;
12896;SDS011;6516;35.028;32.372;2022-07-11T07:33:12;15.18;;;8.43;;
12896;SDS011;6516;35.028;32.372;2022-07-11T07:35:40;15.32;;;8.25;;
12896;SDS011;6516;35.028;32.372;2022-07-11T07:38:09;16.63;;;8.38;;
12896;SDS011;6516;35.028;32.372;2022-07-11T07:40:39;14.63;;;7.53;;
12896;SDS011;6516;35.028;32.372;2022-07-11T07:43:07;13.30;;;8.05;;
12896;SDS011;6516;35.028;32.372;2022-07-11T07:45:35;15.52;;;8.48;;
12896;SDS011;6516;35.028;32.372;2022-07-11T07:48:03;14.23;;;8.07;;
12896;SDS011;6516;35.028;32.372;2022-07-11T07:50:32;16.92;;;8.55;;
12896;SDS011;6516;35.028;32.372;2022-07-11T07:52:59;17.43;;;8.27;;
12896;SDS011;6516;35.028;32.372;2022-07-11T07:55:27;14.00;;;8.10;;
12896;SDS011;6516;35.028;32.372;2022-07-11T07:57:57;11.75;;;7.80;;
12896;SDS011;6516;35.028;32.372;2022-07-11T08:00:25;16.30;;;8.30;;
12896;SDS011;6516;35.028;32.372;2022-07-11T08:03:10;15.63;;;8.27;;
12896;SDS011;6516;35.028;32.372;2022-07-11T08:05:38;13.80;;;8.03;;
12896;SDS011;6516;35.028;32.372;2022-07-11T08:08:06;15.25;;;7.95;;
12896;SDS011;6516;35.028;32.372;2022-07-11T08:10:35;16.98;;;8.88;;
12896;SDS011;6516;35.028;32.372;2022-07-11T08:13:04;15.57;;;8.43;;
12896;SDS011;6516;35.028;32.372;2022-07-11T08:15:32;14.57;;;8.40;;
12896;SDS011;6516;35.028;32.372;2022-07-11T08:18:00;15.23;;;7.93;;
12896;SDS011;6516;35.028;32.372;2022-07-11T08:20:28;14.88;;;7.95;;
12896;SDS011;6516;35.028;32.372;2022-07-11T08:22:58;14.93;;;8.38;;
12896;SDS011;6516;35.028;32.372;2022-07-11T08:25:27;14.35;;;8.25;;
12896;SDS011;6516;35.028;32.372;2022-07-11T08:27:55;17.33;;;8.27;;
12896;SDS011;6516;35.028;32.372;2022-07-11T08:30:24;14.10;;;8.23;;
12896;SDS011;6516;35.028;32.372;2022-07-11T08:32:52;14.00;;;7.85;;
12896;SDS011;6516;35.028;32.372;2022-07-11T08:35:20;16.67;;;8.25;;
12896;SDS011;6516;35.028;32.372;2022-07-11T08:37:48;16.17;;;8.52;;
12896;SDS011;6516;35.028;32.372;2022-07-11T08:40:16;16.42;;;8.80;;
12896;SDS011;6516;35.028;32.372;2022-07-11T08:42:44;13.77;;;8.20;;
12896;SDS011;6516;35.028;32.372;2022-07-11T08:45:12;17.00;;;8.20;;
12896;SDS011;6516;35.028;32.372;2022-07-11T08:47:43;17.02;;;8.65;;
12896;SDS011;6516;35.028;32.372;2022-07-11T08:50:12;12.00;;;7.88;;
12896;SDS011;6516;35.028;32.372;2022-07-11T08:52:40;13.63;;;8.15;;
12896;SDS011;6516;35.028;32.372;2022-07-11T08:55:08;13.77;;;8.10;;
12896;SDS011;6516;35.028;32.372;2022-07-11T08:57:36;16.35;;;8.23;;
12896;SDS011;6516;35.028;32.372;2022-07-11T09:00:05;14.82;;;7.88;;
12896;SDS011;6516;35.028;32.372;2022-07-11T09:02:36;17.08;;;7.88;;
12896;SDS011;6516;35.028;32.372;2022-07-11T09:05:06;18.40;;;7.95;;
12896;SDS011;6516;35.028;32.372;2022-07-11T09:07:41;14.47;;;7.80;;
12896;SDS011;6516;35.028;32.372;2022-07-11T09:10:10;14.15;;;8.07;;
12896;SDS011;6516;35.028;32.372;2022-07-11T09:12:38;12.80;;;7.45;;
12896;SDS011;6516;35.028;32.372;2022-07-11T09:15:32;15.60;;;7.43;;
12896;SDS011;6516;35.028;32.372;2022-07-11T09:18:03;18.85;;;7.72;;
12896;SDS011;6516;35.028;32.372;2022-07-11T09:23:42;17.83;;;7.80;;
12896;SDS011;6516;35.028;32.372;2022-07-11T09:26:29;15.35;;;8.15;;
12896;SDS011;6516;35.028;32.372;2022-07-11T09:28:58;16.88;;;7.82;;
12896;SDS011;6516;35.028;32.372;2022-07-11T09:31:30;16.50;;;7.60;;
12896;SDS011;6516;35.028;32.372;2022-07-11T09:34:00;14.37;;;7.20;;
12896;SDS011;6516;35.028;32.372;2022-07-11T09:36:39;14.23;;;7.63;;
12896;SDS011;6516;35.028;32.372;2022-07-11T09:39:11;14.27;;;7.53;;
12896;SDS011;6516;35.028;32.372;2022-07-11T09:41:41;18.77;;;8.07;;
12896;SDS011;6516;35.028;32.372;2022-07-11T09:44:10;14.77;;;7.53;;
12896;SDS011;6516;35.028;32.372;2022-07-11T09:46:41;16.00;;;6.93;;
12896;SDS011;6516;35.028;32.372;2022-07-11T09:49:12;15.07;;;7.20;;
12896;SDS011;6516;35.028;32.372;2022-07-11T09:51:42;16.65;;;7.45;;
12896;SDS011;6516;35.028;32.372;2022-07-11T09:54:10;14.00;;;7.35;;
12896;SDS011;6516;35.028;32.372;2022-07-11T09:56:39;12.88;;;7.20;;
12896;SDS011;6516;35.028;32.372;2022-07-11T09:59:09;14.97;;;7.80;;
12896;SDS011;6516;35.028;32.372;2022-07-11T10:01:39;16.63;;;7.53;;
12896;SDS011;6516;35.028;32.372;2022-07-11T10:04:07;15.50;;;7.22;;
12896;SDS011;6516;35.028;32.372;2022-07-11T10:06:36;18.67;;;7.10;;
12896;SDS011;6516;35.028;32.372;2022-07-11T10:09:06;18.10;;;7.63;;
12896;SDS011;6516;35.028;32.372;2022-07-11T10:11:34;19.27;;;7.20;;
12896;SDS011;6516;35.028;32.372;2022-07-11T10:14:03;12.05;;;7.50;;
12896;SDS011;6516;35.028;32.372;2022-07-11T10:16:35;18.55;;;8.05;;
12896;SDS011;6516;35.028;32.372;2022-07-11T10:19:21;16.48;;;7.50;;
12896;SDS011;6516;35.028;32.372;2022-07-11T10:22:04;16.33;;;7.28;;
12896;SDS011;6516;35.028;32.372;2022-07-11T10:24:47;16.10;;;7.70;;
12896;SDS011;6516;35.028;32.372;2022-07-11T10:27:28;13.52;;;7.15;;
12896;SDS011;6516;35.028;32.372;2022-07-11T10:30:07;14.40;;;7.60;;
12896;SDS011;6516;35.028;32.372;2022-07-11T10:35:26;13.80;;;7.15;;
12896;SDS011;6516;35.028;32.372;2022-07-11T10:37:58;13.20;;;7.37;;
12896;SDS011;6516;35.028;32.372;2022-07-11T10:40:43;13.57;;;7.22;;
12896;SDS011;6516;35.028;32.372;2022-07-11T10:43:14;15.48;;;7.45;;
12896;SDS011;6516;35.028;32.372;2022-07-11T10:46:01;18.42;;;6.85;;
12896;SDS011;6516;35.028;32.372;2022-07-11T10:48:33;14.32;;;6.75;;
12896;SDS011;6516;35.028;32.372;2022-07-11T10:51:09;13.27;;;6.20;;
12896;SDS011;6516;35.028;32.372;2022-07-11T10:53:45;13.77;;;7.07;;
12896;SDS011;6516;35.028;32.372;2022-07-11T10:56:23;12.98;;;7.18;;
12896;SDS011;6516;35.028;32.372;2022-07-11T10:59:13;12.27;;;6.68;;
12896;SDS011;6516;35.028;32.372;2022-07-11T11:04:42;17.27;;;7.33;;
12896;SDS011;6516;35.028;32.372;2022-07-11T11:07:28;15.98;;;6.53;;
12896;SDS011;6516;35.028;32.372;2022-07-11T11:09:57;16.48;;;7.13;;
12896;SDS011;6516;35.028;32.372;2022-07-11T11:15:45;14.77;;;6.60;;
12896;SDS011;6516;35.028;32.372;2022-07-11T11:18:31;16.80;;;6.57;;
12896;SDS011;6516;35.028;32.372;2022-07-11T11:21:13;15.40;;;7.03;;
12896;SDS011;6516;35.028;32.372;2022-07-11T11:23:44;13.55;;;7.10;;
12896;SDS011;6516;35.028;32.372;2022-07-11T11:26:41;14.77;;;6.95;;
12896;SDS011;6516;35.028;32.372;2022-07-11T11:29:26;14.15;;;7.22;;
12896;SDS011;6516;35.028;32.372;2022-07-11T11:31:56;14.03;;;6.83;;
12896;SDS011;6516;35.028;32.372;2022-07-11T11:34:26;15.77;;;7.25;;
12896;SDS011;6516;35.028;32.372;2022-07-11T11:36:56;17.25;;;7.60;;
12896;SDS011;6516;35.028;32.372;2022-07-11T11:39:28;11.20;;;6.65;;
12896;SDS011;6516;35.028;32.372;2022-07-11T11:42:03;15.32;;;7.25;;
12896;SDS011;6516;35.028;32.372;2022-07-11T11:44:46;12.97;;;6.70;;
12896;SDS011;6516;35.028;32.372;2022-07-11T11:47:19;14.93;;;7.15;;
12896;SDS011;6516;35.028;32.372;2022-07-11T11:49:48;14.85;;;7.25;;
12896;SDS011;6516;35.028;32.372;2022-07-11T11:52:16;13.27;;;6.80;;
12896;SDS011;6516;35.028;32.372;2022-07-11T11:54:50;15.65;;;7.40;;
12896;SDS011;6516;35.028;32.372;2022-07-11T11:57:22;17.87;;;6.77;;
12896;SDS011;6516;35.028;32.372;2022-07-11T11:59:54;15.60;;;6.95;;
12896;SDS011;6516;35.028;32.372;2022-07-11T12:02:23;17.70;;;7.75;;
12896;SDS011;6516;35.028;32.372;2022-07-11T12:04:54;15.77;;;6.97;;
12896;SDS011;6516;35.028;32.372;2022-07-11T12:07:27;13.07;;;7.15;;
12896;SDS011;6516;35.028;32.372;2022-07-11T12:09:57;14.70;;;7.13;;
12896;SDS011;6516;35.028;32.372;2022-07-11T12:12:29;15.77;;;6.68;;
12896;SDS011;6516;35.028;32.372;2022-07-11T12:15:26;12.45;;;6.50;;
12896;SDS011;6516;35.028;32.372;2022-07-11T12:18:00;16.27;;;6.97;;
12896;SDS011;6516;35.028;32.372;2022-07-11T12:20:34;13.98;;;6.75;;
12896;SDS011;6516;35.028;32.372;2022-07-11T12:23:08;15.63;;;6.47;;
12896;SDS011;6516;35.028;32.372;2022-07-11T12:25:38;15.27;;;6.60;;
12896;SDS011;6516;35.028;32.372;2022-07-11T12:28:06;12.40;;;6.80;;
12896;SDS011;6516;35.028;32.372;2022-07-11T12:30:36;13.43;;;6.25;;
12896;SDS011;6516;35.028;32.372;2022-07-11T12:33:05;13.80;;;6.13;;
12896;SDS011;6516;35.028;32.372;2022-07-11T12:35:35;16.57;;;6.50;;
12896;SDS011;6516;35.028;32.372;2022-07-11T12:38:03;15.80;;;6.20;;
12896;SDS011;6516;35.028;32.372;2022-07-11T12:40:31;16.27;;;6.25;;
12896;SDS011;6516;35.028;32.372;2022-07-11T12:42:59;11.50;;;5.82;;
12896;SDS011;6516;35.028;32.372;2022-07-11T12:46:02;14.50;;;6.68;;
12896;SDS011;6516;35.028;32.372;2022-07-11T12:48:37;12.43;;;6.20;;
12896;SDS011;6516;35.028;32.372;2022-07-11T12:51:07;12.85;;;5.78;;
12896;SDS011;6516;35.028;32.372;2022-07-11T12:53:35;16.77;;;6.50;;
12896;SDS011;6516;35.028;32.372;2022-07-11T12:56:03;15.38;;;6.30;;
12896;SDS011;6516;35.028;32.372;2022-07-11T12:58:37;14.52;;;6.40;;
12896;SDS011;6516;35.028;32.372;2022-07-11T13:01:08;14.90;;;6.50;;
12896;SDS011;6516;35.028;32.372;2022-07-11T13:03:36;15.93;;;6.70;;
12896;SDS011;6516;35.028;32.372;2022-07-11T13:06:03;12.65;;;6.20;;
12896;SDS011;6516;35.028;32.372;2022-07-11T13:08:32;15.68;;;6.50;;
12896;SDS011;6516;35.028;32.372;2022-07-11T13:11:11;16.40;;;6.00;;
12896;SDS011;6516;35.028;32.372;2022-07-11T13:13:40;15.57;;;6.53;;
12896;SDS011;6516;35.028;32.372;2022-07-11T13:16:10;14.63;;;6.43;;
12896;SDS011;6516;35.028;32.372;2022-07-11T13:18:38;13.98;;;6.20;;
12896;SDS011;6516;35.028;32.372;2022-07-11T13:21:06;13.55;;;5.65;;
12896;SDS011;6516;35.028;32.372;2022-07-11T13:23:35;19.65;;;6.38;;
12896;SDS011;6516;35.028;32.372;2022-07-11T13:26:05;14.50;;;5.50;;
12896;SDS011;6516;35.028;32.372;2022-07-11T13:28:34;15.30;;;6.43;;
12896;SDS011;6516;35.028;32.372;2022-07-11T13:31:03;14.80;;;5.93;;
12896;SDS011;6516;35.028;32.372;2022-07-11T13:33:33;12.18;;;5.80;;
12896;SDS011;6516;35.028;32.372;2022-07-11T13:36:03;16.10;;;5.80;;
12896;SDS011;6516;35.028;32.372;2022-07-11T13:38:32;13.87;;;5.97;;
12896;SDS011;6516;35.028;32.372;2022-07-11T13:40:59;14.90;;;6.13;;
12896;SDS011;6516;35.028;32.372;2022-07-11T13:43:27;13.95;;;6.65;;
12896;SDS011;6516;35.028;32.372;2022-07-11T13:45:56;12.25;;;6.32;;
12896;SDS011;6516;35.028;32.372;2022-07-11T13:48:24;14.48;;;6.30;;
12896;SDS011;6516;35.028;32.372;2022-07-11T13:50:53;12.97;;;6.13;;
12896;SDS011;6516;35.028;32.372;2022-07-11T13:53:21;14.70;;;6.20;;
12896;SDS011;6516;35.028;32.372;2022-07-11T13:55:49;16.40;;;6.35;;
12896;SDS011;6516;35.028;32.372;2022-07-11T13:58:17;15.27;;;6.13;;
12896;SDS011;6516;35.028;32.372;2022-07-11T14:00:50;14.65;;;6.30;;
12896;SDS011;6516;35.028;32.372;2022-07-11T14:03:18;17.00;;;6.40;;
12896;SDS011;6516;35.028;32.372;2022-07-11T14:05:46;14.80;;;6.30;;
12896;SDS011;6516;35.028;32.372;2022-07-11T14:08:16;17.02;;;6.75;;
12896;SDS011;6516;35.028;32.372;2022-07-11T14:10:44;17.20;;;6.53;;
12896;SDS011;6516;35.028;32.372;2022-07-11T14:13:12;17.40;;;6.90;;
12896;SDS011;6516;35.028;32.372;2022-07-11T14:15:39;14.90;;;6.50;;
12896;SDS011;6516;35.028;32.372;2022-07-11T14:18:07;17.70;;;7.00;;
12896;SDS011;6516;35.028;32.372;2022-07-11T14:20:35;15.50;;;7.20;;
12896;SDS011;6516;35.028;32.372;2022-07-11T14:23:03;15.63;;;6.63;;
12896;SDS011;6516;35.028;32.372;2022-07-11T14:25:33;18.00;;;7.30;;
12896;SDS011;6516;35.028;32.372;2022-07-11T14:28:05;16.87;;;7.23;;
12896;SDS011;6516;35.028;32.372;2022-07-11T14:30:33;16.10;;;6.88;;
12896;SDS011;6516;35.028;32.372;2022-07-11T14:33:01;15.30;;;7.32;;
12896;SDS011;6516;35.028;32.372;2022-07-11T14:35:29;16.27;;;7.03;;
12896;SDS011;6516;35.028;32.372;2022-07-11T14:37:57;17.67;;;7.70;;
12896;SDS011;6516;35.028;32.372;2022-07-11T14:40:25;12.50;;;7.33;;
12896;SDS011;6516;35.028;32.372;2022-07-11T14:42:55;15.80;;;6.97;;
12896;SDS011;6516;35.028;32.372;2022-07-11T14:45:23;18.65;;;7.80;;
12896;SDS011;6516;35.028;32.372;2022-07-11T14:47:51;18.70;;;7.75;;
12896;SDS011;6516;35.028;32.372;2022-07-11T14:50:18;15.70;;;7.38;;
12896;SDS011;6516;35.028;32.372;2022-07-11T14:52:47;16.17;;;7.60;;
12896;SDS011;6516;35.028;32.372;2022-07-11T14:55:15;17.08;;;7.30;;
12896;SDS011;6516;35.028;32.372;2022-07-11T14:57:43;21.23;;;7.80;;